KMLE

Millard Airport

Omaha, Nebraska, USA
METAR KMLE 211536Z AUTO 13013G23KT 5SM -SN OVC014 M10/M13 A3010 RMK AO2
Observed Flight Rules
Jan-21 @ 15:36 UTC (22 minutes ago) Marginal Visual Flight Rules
Wind Visibility Clouds Conditions
130° at 13 knots
 Gusting to 23 knots
5 miles
  • Overcast at 1,400' AGL
  • Light Snow
Temperatures Readings
Current -10°C / 14°F
Dewpoint -13°C / 9°F
Humidity 79%
Altimeter 30.1" Hg
Pressure 1019.32 hPa
Elevation 320
METAR KMLE 211536Z AUTO 13013G23KT 5SM -SN OVC014 M10/M13 A3010 RMK AO2
Observed Flight Rules
Jan-21 @ 15:36 UTC
(22 minutes ago)
MVFR
Wind Visibility
130° at 13 knots
 Gusting to 23 knots
5 miles
Clouds
  • Overcast at 1,400' AGL
Conditions
  • Light Snow
Temperature Dewpoint
-10°C / 14°F -13°C / 9°F
Humidity Altimeter Pressure
79% 30.1" Hg 1019.32 hPa